createdAt,value
2023-02-01T00:00:39.927Z,101138.60
2023-02-01T00:02:11.729Z,101144.00
2023-02-01T00:03:43.683Z,101147.20
2023-02-01T00:05:15.598Z,101145.20
2023-02-01T00:06:47.434Z,101142.00
2023-02-01T00:08:19.134Z,101137.40
2023-02-01T00:09:50.886Z,101143.00
2023-02-01T00:11:24.127Z,101143.40
2023-02-01T00:12:55.884Z,101143.60
2023-02-01T00:14:27.798Z,101158.80
2023-02-01T00:16:07.748Z,101148.60
2023-02-01T00:17:39.721Z,101143.40
2023-02-01T00:19:16.240Z,101145.40
2023-02-01T00:20:48.136Z,101141.60
2023-02-01T00:22:20.136Z,101142.80
2023-02-01T00:23:51.939Z,101141.80
2023-02-01T00:25:23.664Z,101141.60
2023-02-01T00:26:55.488Z,101142.20
2023-02-01T00:28:28.082Z,101138.00
2023-02-01T00:29:59.937Z,101131.40
2023-02-01T00:31:32.638Z,101127.00
2023-02-01T00:33:04.560Z,101131.00
2023-02-01T00:34:36.528Z,101130.00
2023-02-01T00:36:10.548Z,101129.20
2023-02-01T00:37:42.332Z,101120.80
2023-02-01T00:39:15.241Z,101117.20
2023-02-01T00:40:46.934Z,101113.40
2023-02-01T00:42:18.811Z,101109.80
2023-02-01T00:43:52.244Z,101104.80
2023-02-01T00:45:24.066Z,101091.40
2023-02-01T00:46:56.383Z,101096.80
2023-02-01T00:48:28.519Z,101098.20
2023-02-01T00:50:00.334Z,101108.40
2023-02-01T00:51:32.901Z,101112.80
2023-02-01T00:53:05.065Z,101111.20
2023-02-01T00:54:38.304Z,101110.80
2023-02-01T00:56:11.109Z,101105.80
2023-02-01T00:57:42.911Z,101108.80
2023-02-01T00:59:14.846Z,101105.40
2023-02-01T01:00:47.539Z,101113.80
2023-02-01T01:02:19.484Z,101107.40
2023-02-01T01:03:59.348Z,101112.00
2023-02-01T01:05:31.128Z,101115.40
2023-02-01T01:07:02.979Z,101114.80
2023-02-01T01:08:36.173Z,101121.80
2023-02-01T01:10:08.785Z,101116.80
2023-02-01T01:11:40.851Z,101118.80
2023-02-01T01:13:12.661Z,101113.40
2023-02-01T01:14:44.404Z,101110.60
2023-02-01T01:16:16.942Z,101111.80
2023-02-01T01:17:48.767Z,101112.00
2023-02-01T01:19:20.524Z,101116.80
2023-02-01T01:20:52.250Z,101116.60
2023-02-01T01:22:23.966Z,101118.80
2023-02-01T01:23:56.331Z,101117.80
2023-02-01T01:25:28.420Z,101124.60
2023-02-01T01:27:00.171Z,101118.20
2023-02-01T01:28:31.838Z,101117.20
2023-02-01T01:30:03.885Z,101111.40
2023-02-01T01:31:35.633Z,101114.60
2023-02-01T01:33:07.568Z,101111.80
2023-02-01T01:34:39.486Z,101113.20
2023-02-01T01:36:13.184Z,101104.40
2023-02-01T01:37:45.081Z,101100.80
2023-02-01T01:39:16.954Z,101103.40
2023-02-01T01:40:50.793Z,101099.60
2023-02-01T01:42:22.927Z,101097.40
2023-02-01T01:44:00.330Z,101106.40
2023-02-01T01:45:35.365Z,101102.40
2023-02-01T01:47:07.131Z,101100.20
2023-02-01T01:48:38.818Z,101104.00
2023-02-01T01:50:17.925Z,101099.40
2023-02-01T01:51:58.381Z,101103.40
2023-02-01T01:53:46.027Z,101091.00
2023-02-01T01:55:21.575Z,101088.80
2023-02-01T01:57:00.273Z,101092.00
2023-02-01T01:58:35.062Z,101100.60
2023-02-01T02:00:14.973Z,101090.20
2023-02-01T02:01:47.826Z,101081.20
2023-02-01T02:03:26.565Z,101085.40
2023-02-01T02:04:58.428Z,101086.40
2023-02-01T02:06:49.046Z,101084.20
2023-02-01T02:08:22.593Z,101083.20
2023-02-01T02:10:00.822Z,101089.20
2023-02-01T02:11:32.855Z,101085.80
2023-02-01T02:13:04.659Z,101083.40
2023-02-01T02:14:37.670Z,101080.00
2023-02-01T02:16:41.970Z,101074.20
2023-02-01T02:18:31.787Z,101078.60
2023-02-01T02:20:53.157Z,101089.00
2023-02-01T02:23:27.688Z,101075.60
2023-02-01T02:25:33.394Z,101069.80
2023-02-01T02:28:29.749Z,101063.80
2023-02-01T02:30:34.640Z,101065.60
2023-02-01T02:32:45.538Z,101063.00
2023-02-01T02:34:36.143Z,101065.80
2023-02-01T02:36:37.070Z,101063.80
2023-02-01T02:38:40.785Z,101060.60
2023-02-01T02:40:23.122Z,101069.80
2023-02-01T02:42:43.325Z,101067.20
2023-02-01T02:45:07.470Z,101056.40
2023-02-01T02:47:07.532Z,101055.20
2023-02-01T02:49:05.285Z,101043.00
2023-02-01T02:50:57.401Z,101041.80
2023-02-01T02:52:49.076Z,101042.00
2023-02-01T02:54:50.000Z,101042.20
2023-02-01T02:56:44.678Z,101045.60
2023-02-01T02:58:36.102Z,101057.00
2023-02-01T03:00:34.410Z,101056.40
2023-02-01T03:02:26.099Z,101053.00
2023-02-01T03:04:09.940Z,101042.40
2023-02-01T03:05:48.931Z,101039.60
2023-02-01T03:08:05.215Z,101044.00
2023-02-01T03:09:41.377Z,101042.60
2023-02-01T03:11:16.316Z,101034.20
2023-02-01T03:12:58.975Z,101036.80
2023-02-01T03:14:34.625Z,101031.80
2023-02-01T03:16:29.066Z,101026.40
2023-02-01T03:18:08.239Z,101019.20
2023-02-01T03:19:52.606Z,101012.40
2023-02-01T03:21:41.755Z,101004.80
2023-02-01T03:23:19.755Z,101007.80
2023-02-01T03:24:57.256Z,101007.80
2023-02-01T03:26:32.185Z,101010.20
2023-02-01T03:28:12.567Z,101004.00
2023-02-01T03:29:57.383Z,101014.80
2023-02-01T03:31:30.112Z,101018.00
2023-02-01T03:33:12.386Z,101017.40
2023-02-01T03:34:45.761Z,101021.60
2023-02-01T03:36:36.549Z,101016.20
2023-02-01T03:38:26.358Z,101016.20
2023-02-01T03:40:09.136Z,101011.60
2023-02-01T03:41:54.574Z,101008.60
2023-02-01T03:43:32.341Z,101010.80
2023-02-01T03:45:14.905Z,101007.80
2023-02-01T03:47:01.247Z,101010.00
2023-02-01T03:48:34.078Z,101007.40
2023-02-01T03:50:34.677Z,101006.40
2023-02-01T03:52:12.060Z,100996.80
2023-02-01T03:53:48.276Z,101000.00
2023-02-01T03:55:26.428Z,100988.00
2023-02-01T03:57:06.010Z,100981.00
2023-02-01T03:58:38.360Z,100972.00
2023-02-01T04:00:21.033Z,100977.00
2023-02-01T04:01:55.557Z,100971.80
2023-02-01T04:03:29.073Z,100982.20
2023-02-01T04:05:01.961Z,100986.40
2023-02-01T04:06:34.099Z,100991.40
2023-02-01T04:08:07.990Z,100999.60
2023-02-01T04:09:39.659Z,101010.40
2023-02-01T04:11:11.425Z,101008.20
2023-02-01T04:12:43.189Z,101011.00
2023-02-01T04:14:14.891Z,101000.20
2023-02-01T04:15:50.779Z,100992.60
2023-02-01T04:17:22.646Z,100990.40
2023-02-01T04:18:54.362Z,100990.80
2023-02-01T04:20:26.204Z,100988.60
2023-02-01T04:21:57.986Z,100984.80
2023-02-01T04:23:30.495Z,100979.20
2023-02-01T04:25:02.273Z,100985.60
2023-02-01T04:26:33.997Z,100990.40
2023-02-01T04:28:06.043Z,100988.20
2023-02-01T04:29:37.795Z,100991.40
2023-02-01T04:31:09.589Z,100991.60
2023-02-01T04:32:41.437Z,100997.20
2023-02-01T04:34:13.331Z,100980.60
2023-02-01T04:35:45.034Z,100985.20
2023-02-01T04:37:16.770Z,100992.40
2023-02-01T04:40:33.162Z,100980.20
2023-02-01T04:42:05.189Z,100973.60
2023-02-01T04:43:36.980Z,100981.60
2023-02-01T04:45:09.914Z,100990.40
2023-02-01T04:46:42.421Z,100984.80
2023-02-01T04:48:14.214Z,100987.40
2023-02-01T04:49:45.978Z,100992.60
2023-02-01T04:51:19.122Z,100995.20
2023-02-01T04:52:50.993Z,100997.40
2023-02-01T04:54:22.809Z,100997.40
2023-02-01T04:55:55.021Z,101000.80
2023-02-01T04:57:27.391Z,100987.20
2023-02-01T04:58:59.321Z,100994.40
2023-02-01T05:00:31.208Z,100985.40
2023-02-01T05:02:02.993Z,100980.80
2023-02-01T05:03:35.990Z,100988.20
2023-02-01T05:05:08.606Z,100986.20
2023-02-01T05:06:40.640Z,100990.60
2023-02-01T05:08:12.444Z,100996.60
2023-02-01T05:09:44.192Z,100994.40
2023-02-01T05:11:34.633Z,100997.40
2023-02-01T05:13:25.240Z,100983.80
2023-02-01T05:14:56.929Z,100999.20
2023-02-01T05:16:28.700Z,100994.60
2023-02-01T05:18:01.102Z,101003.00
2023-02-01T05:19:32.899Z,101005.00
2023-02-01T05:21:05.227Z,101007.00
2023-02-01T05:22:37.084Z,100992.60
2023-02-01T05:24:20.665Z,100992.00
2023-02-01T05:25:52.495Z,101000.60
2023-02-01T05:27:24.405Z,101001.20
2023-02-01T05:28:56.491Z,100996.20
2023-02-01T05:30:28.500Z,101004.60
2023-02-01T05:32:08.427Z,101005.60
2023-02-01T05:33:47.367Z,100999.20
2023-02-01T05:35:20.287Z,101001.40
2023-02-01T05:36:52.145Z,100992.00
2023-02-01T05:38:23.843Z,100997.00
2023-02-01T05:39:55.658Z,100985.00
2023-02-01T05:41:27.421Z,100991.00
2023-02-01T05:42:59.224Z,100993.20
2023-02-01T05:44:31.008Z,100998.80
2023-02-01T05:46:02.890Z,100995.40
2023-02-01T05:47:34.712Z,100995.00
2023-02-01T05:49:06.499Z,100997.20
2023-02-01T05:50:38.539Z,100992.60
2023-02-01T05:52:14.539Z,100973.60
2023-02-01T05:53:46.293Z,100982.60
2023-02-01T05:55:18.027Z,100970.60
2023-02-01T06:10:11.307Z,100982.60
2023-02-01T06:11:43.131Z,100977.60
2023-02-01T06:13:14.841Z,100972.00
2023-02-01T06:14:46.583Z,100980.20
2023-02-01T06:16:18.567Z,100977.40
2023-02-01T06:17:50.536Z,100978.00
2023-02-01T06:19:23.805Z,100970.80
2023-02-01T06:20:57.882Z,100976.80
2023-02-01T06:22:29.775Z,100987.20
2023-02-01T06:24:01.650Z,100989.40
2023-02-01T06:25:33.377Z,100984.40
2023-02-01T06:27:05.108Z,100986.00
2023-02-01T06:28:36.850Z,100996.00
2023-02-01T06:30:09.624Z,100997.40
2023-02-01T06:31:41.547Z,101007.00
2023-02-01T06:33:16.020Z,101005.20
2023-02-01T06:34:48.016Z,101005.40
2023-02-01T06:36:22.101Z,101011.20
2023-02-01T06:37:53.819Z,101005.80
2023-02-01T06:39:25.603Z,100985.20
2023-02-01T06:40:59.056Z,100996.40
2023-02-01T06:42:31.044Z,100994.60
2023-02-01T06:44:02.980Z,100997.20
2023-02-01T06:45:34.877Z,100999.00
2023-02-01T06:47:09.162Z,101000.40
2023-02-01T06:48:41.894Z,100994.40
2023-02-01T06:50:13.883Z,100994.40
2023-02-01T06:51:45.707Z,100987.40
2023-02-01T06:53:17.684Z,100995.40
2023-02-01T06:54:49.498Z,100987.60
2023-02-01T06:56:24.677Z,100993.60
2023-02-01T06:57:57.217Z,100992.00
2023-02-01T06:59:29.016Z,101002.00
2023-02-01T07:01:08.909Z,100997.20
2023-02-01T07:02:40.744Z,101002.40
2023-02-01T07:04:13.479Z,101000.80
2023-02-01T07:05:45.308Z,101008.40
2023-02-01T07:07:17.925Z,101001.80
2023-02-01T07:08:50.376Z,101003.20
2023-02-01T07:10:22.421Z,101007.80
2023-02-01T07:11:54.477Z,101015.00
2023-02-01T07:13:26.216Z,101012.60
2023-02-01T07:14:58.045Z,101025.80
2023-02-01T07:16:30.116Z,101013.20
2023-02-01T07:18:01.940Z,101022.20
2023-02-01T07:19:33.897Z,101022.20
2023-02-01T07:21:05.965Z,101030.20
2023-02-01T07:22:37.663Z,101016.20
2023-02-01T07:24:09.529Z,101017.60
2023-02-01T07:25:41.370Z,101014.80
2023-02-01T07:27:13.346Z,101015.20
2023-02-01T07:28:45.129Z,101030.20
2023-02-01T07:30:17.322Z,101017.40
2023-02-01T07:31:49.056Z,101015.60
2023-02-01T07:33:24.601Z,101021.20
2023-02-01T07:34:58.979Z,101024.80
2023-02-01T07:36:31.032Z,101032.60
2023-02-01T07:38:02.778Z,101027.20
2023-02-01T07:39:34.501Z,101024.80
2023-02-01T07:41:07.380Z,101035.80
2023-02-01T07:42:39.165Z,101036.40
2023-02-01T07:44:11.091Z,101036.80
2023-02-01T07:45:42.910Z,101045.20
2023-02-01T07:47:14.747Z,101041.00
2023-02-01T07:48:46.544Z,101035.20
2023-02-01T07:50:18.725Z,101039.40
2023-02-01T07:51:50.698Z,101041.40
2023-02-01T07:53:22.412Z,101042.20
2023-02-01T07:54:54.133Z,101042.80
2023-02-01T07:56:26.348Z,101040.20
2023-02-01T07:57:59.745Z,101041.40
2023-02-01T07:59:31.501Z,101034.60
2023-02-01T08:01:21.255Z,101041.20
2023-02-01T08:02:53.096Z,101041.00
2023-02-01T08:04:24.903Z,101050.80
2023-02-01T08:05:56.960Z,101042.60
2023-02-01T08:07:28.804Z,101038.60
2023-02-01T08:09:01.125Z,101039.00
2023-02-01T08:10:33.412Z,101053.60
2023-02-01T08:12:05.443Z,101040.00
2023-02-01T08:13:37.615Z,101043.20
2023-02-01T08:15:09.830Z,101040.00
2023-02-01T08:16:41.568Z,101049.20
2023-02-01T08:18:17.125Z,101054.60
2023-02-01T08:19:48.894Z,101048.80
2023-02-01T08:21:37.109Z,101051.40
2023-02-01T08:23:10.049Z,101058.60
2023-02-01T08:24:42.692Z,101055.00
2023-02-01T08:26:25.274Z,101049.80
2023-02-01T08:27:57.324Z,101045.60
2023-02-01T08:29:29.772Z,101060.80
2023-02-01T08:31:07.978Z,101055.80
2023-02-01T08:32:40.106Z,101062.60
2023-02-01T08:34:13.110Z,101054.40
2023-02-01T08:35:44.902Z,101057.40
2023-02-01T08:37:16.738Z,101065.40
2023-02-01T08:38:48.690Z,101061.80
2023-02-01T08:40:22.813Z,101067.80
2023-02-01T08:42:13.282Z,101067.20
2023-02-01T08:43:46.505Z,101070.00
2023-02-01T08:45:20.900Z,101060.60
2023-02-01T08:46:52.700Z,101069.00
2023-02-01T08:48:24.509Z,101065.00
2023-02-01T08:49:56.501Z,101058.80
2023-02-01T08:51:28.383Z,101062.20
2023-02-01T08:53:00.145Z,101075.40
2023-02-01T08:54:31.880Z,101082.60
2023-02-01T08:56:05.464Z,101091.00
2023-02-01T08:57:37.310Z,101074.60
2023-02-01T08:59:09.023Z,101079.60
2023-02-01T09:00:41.860Z,101086.60
2023-02-01T09:02:15.962Z,101076.80
2023-02-01T09:03:47.865Z,101076.00
2023-02-01T09:05:23.132Z,101081.60
2023-02-01T09:06:56.633Z,101070.60
2023-02-01T09:08:28.834Z,101068.40
2023-02-01T09:10:04.065Z,101068.20
2023-02-01T09:11:36.586Z,101060.60
2023-02-01T09:13:09.737Z,101059.20
2023-02-01T09:14:41.555Z,101060.00
2023-02-01T09:16:13.827Z,101060.60
2023-02-01T09:17:46.717Z,101051.40
2023-02-01T09:19:27.194Z,101047.20
2023-02-01T09:20:59.356Z,101049.20
2023-02-01T09:22:31.195Z,101043.40
2023-02-01T09:24:05.081Z,101038.00
2023-02-01T09:25:39.407Z,101040.80
2023-02-01T09:27:11.362Z,101037.80
2023-02-01T09:28:43.210Z,101034.20
2023-02-01T09:30:15.380Z,101038.20
2023-02-01T09:31:57.818Z,101030.20
2023-02-01T09:33:35.239Z,101029.80
2023-02-01T09:35:07.505Z,101031.40
2023-02-01T09:36:39.222Z,101038.20
2023-02-01T09:38:10.928Z,101039.80
2023-02-01T09:39:43.933Z,101043.40
2023-02-01T09:41:28.934Z,101041.40
2023-02-01T09:43:45.659Z,101045.80
2023-02-01T09:45:42.652Z,101053.00
2023-02-01T09:47:22.675Z,101054.00
2023-02-01T09:48:59.541Z,101050.60
2023-02-01T09:50:39.126Z,101044.00
2023-02-01T09:52:15.686Z,101042.00
2023-02-01T09:54:10.593Z,101042.60
2023-02-01T09:55:45.650Z,101035.40
2023-02-01T09:57:23.504Z,101038.40
2023-02-01T09:59:32.007Z,101029.80
2023-02-01T10:01:11.734Z,101024.60
2023-02-01T10:02:44.180Z,101028.40
2023-02-01T10:04:18.215Z,101034.80
2023-02-01T10:06:27.589Z,101030.40
2023-02-01T10:08:28.985Z,101022.40
2023-02-01T10:10:22.776Z,101030.40
2023-02-01T10:12:52.113Z,101034.20
2023-02-01T10:15:14.630Z,101024.80
2023-02-01T10:17:01.216Z,101034.20
2023-02-01T10:19:03.826Z,101025.40
2023-02-01T10:21:05.431Z,101028.40
2023-02-01T10:23:32.840Z,101014.20
2023-02-01T10:25:31.797Z,101006.40
2023-02-01T10:27:18.500Z,101010.80
2023-02-01T10:29:00.564Z,101024.60
2023-02-01T10:30:46.983Z,101040.60
2023-02-01T10:32:25.830Z,101046.00
2023-02-01T10:34:02.320Z,101039.60
2023-02-01T10:35:37.559Z,101039.40
2023-02-01T10:37:25.122Z,101042.80
2023-02-01T10:39:00.572Z,101042.60
2023-02-01T10:40:33.191Z,101038.60
2023-02-01T10:42:05.378Z,101026.00
2023-02-01T10:43:37.346Z,101028.80
2023-02-01T10:45:18.714Z,101028.20
2023-02-01T10:46:51.830Z,101022.00
2023-02-01T10:48:24.288Z,101021.80
2023-02-01T10:50:16.596Z,101024.40
2023-02-01T10:52:32.114Z,101023.60
2023-02-01T10:54:21.370Z,101020.80
2023-02-01T10:55:55.605Z,101019.60
2023-02-01T10:57:30.709Z,101018.40
2023-02-01T10:59:06.385Z,101013.20
2023-02-01T11:00:44.428Z,101012.60
2023-02-01T11:02:35.442Z,101016.20
2023-02-01T11:04:14.366Z,101004.80
2023-02-01T11:05:47.575Z,101022.80
2023-02-01T11:07:26.977Z,101004.60
2023-02-01T11:09:08.933Z,101012.20
2023-02-01T11:10:43.662Z,101005.20
2023-02-01T11:12:26.680Z,101008.60
2023-02-01T11:14:02.741Z,101012.80
2023-02-01T11:15:34.507Z,101007.80
2023-02-01T11:17:15.477Z,101011.00
2023-02-01T11:18:56.034Z,101006.60
2023-02-01T11:20:43.733Z,101006.20
2023-02-01T11:22:16.047Z,100997.00
2023-02-01T11:23:48.146Z,100993.00
2023-02-01T11:25:20.855Z,100989.00
2023-02-01T11:26:57.366Z,100977.80
2023-02-01T11:28:34.670Z,100989.00
2023-02-01T11:30:07.343Z,100980.80
2023-02-01T11:31:42.173Z,100975.40
2023-02-01T11:33:19.948Z,100979.20
2023-02-01T11:35:01.777Z,100972.80
2023-02-01T11:36:37.833Z,100960.40
2023-02-01T11:38:32.422Z,100960.60
2023-02-01T11:40:19.491Z,100953.60
2023-02-01T11:42:14.220Z,100948.40
2023-02-01T11:44:23.897Z,100941.20
2023-02-01T11:46:03.866Z,100957.40
2023-02-01T11:47:44.297Z,100945.00
2023-02-01T11:49:28.340Z,100941.60
2023-02-01T11:51:33.720Z,100943.60
2023-02-01T11:53:46.813Z,100946.80
2023-02-01T11:55:52.262Z,100948.40
2023-02-01T11:58:12.945Z,100942.80
2023-02-01T11:59:58.730Z,100946.00
2023-02-01T12:02:08.082Z,100957.20
2023-02-01T12:04:40.749Z,100953.60
2023-02-01T12:06:36.671Z,100958.60
2023-02-01T12:08:40.061Z,100965.60
2023-02-01T12:10:26.216Z,100954.40
2023-02-01T12:12:26.654Z,100942.40
2023-02-01T12:14:07.582Z,100943.00
2023-02-01T12:16:17.428Z,100937.20
2023-02-01T12:18:05.185Z,100936.20
2023-02-01T12:19:46.105Z,100941.00
2023-02-01T12:21:32.980Z,100940.60
2023-02-01T12:24:19.100Z,100937.60
2023-02-01T12:26:27.919Z,100927.60
2023-02-01T12:28:34.427Z,100921.40
2023-02-01T12:30:34.304Z,100915.00
2023-02-01T12:32:48.211Z,100921.40
2023-02-01T12:34:43.977Z,100933.40
2023-02-01T12:37:04.902Z,100906.60
2023-02-01T12:39:05.384Z,100896.40
2023-02-01T12:41:12.628Z,100898.80
2023-02-01T12:43:16.229Z,100899.60
2023-02-01T12:44:59.827Z,100897.40
2023-02-01T12:46:44.519Z,100899.60
2023-02-01T12:48:30.995Z,100903.20
2023-02-01T12:50:14.119Z,100894.60
2023-02-01T12:51:51.219Z,100888.60
2023-02-01T12:53:38.597Z,100901.60
2023-02-01T12:55:24.614Z,100900.00
2023-02-01T12:57:09.001Z,100901.80
2023-02-01T12:58:55.742Z,100909.00
2023-02-01T13:00:48.123Z,100911.80
2023-02-01T13:02:43.608Z,100915.00
2023-02-01T13:04:21.535Z,100921.80
2023-02-01T13:06:17.625Z,100916.00
2023-02-01T13:08:01.832Z,100915.00
2023-02-01T13:10:02.959Z,100914.20
2023-02-01T13:11:41.420Z,100916.00
2023-02-01T13:13:25.169Z,100920.60
2023-02-01T13:15:11.695Z,100917.00
2023-02-01T13:16:51.706Z,100915.20
2023-02-01T13:18:27.700Z,100908.00
2023-02-01T13:20:22.559Z,100898.20
2023-02-01T13:22:49.165Z,100902.20
2023-02-01T13:24:35.082Z,100893.40
2023-02-01T13:26:07.418Z,100893.60
2023-02-01T13:27:40.232Z,100907.20
2023-02-01T13:29:13.413Z,100895.60
2023-02-01T13:31:09.905Z,100903.60
2023-02-01T13:33:51.284Z,100894.80
2023-02-01T13:35:01.003Z,100890.40
2023-02-01T13:36:44.373Z,100870.20
2023-02-01T13:38:34.838Z,100889.00
2023-02-01T13:40:24.761Z,100890.00
2023-02-01T13:41:59.104Z,100892.20
2023-02-01T13:43:33.617Z,100890.80
2023-02-01T13:45:17.258Z,100895.60
2023-02-01T13:46:52.548Z,100896.60
2023-02-01T13:48:34.170Z,100900.60
2023-02-01T13:50:23.902Z,100895.20
2023-02-01T13:51:59.109Z,100891.60
2023-02-01T13:53:40.852Z,100899.80
2023-02-01T13:55:35.046Z,100905.60
2023-02-01T13:57:37.527Z,100894.00
2023-02-01T13:59:41.186Z,100894.20
2023-02-01T14:01:21.767Z,100889.80
2023-02-01T14:03:02.944Z,100894.40
2023-02-01T14:04:50.116Z,100888.20
2023-02-01T14:06:28.136Z,100885.60
2023-02-01T14:08:14.823Z,100895.00
2023-02-01T14:09:46.628Z,100895.20
2023-02-01T14:11:40.390Z,100905.80
2023-02-01T14:13:30.063Z,100891.00
2023-02-01T14:15:29.150Z,100887.80
2023-02-01T14:17:00.890Z,100898.80
2023-02-01T14:18:38.747Z,100903.20
2023-02-01T14:20:46.217Z,100900.40
2023-02-01T14:22:27.031Z,100906.80
2023-02-01T14:24:04.166Z,100908.80
2023-02-01T14:25:35.975Z,100898.80
2023-02-01T14:27:13.655Z,100916.80
2023-02-01T14:28:53.734Z,100917.00
2023-02-01T14:30:26.025Z,100910.60
2023-02-01T14:32:24.141Z,100919.60
2023-02-01T14:34:03.592Z,100915.20
2023-02-01T14:35:35.405Z,100917.40
2023-02-01T14:37:29.950Z,100926.60
2023-02-01T14:39:02.131Z,100921.80
2023-02-01T14:40:36.764Z,100930.40
2023-02-01T14:42:33.813Z,100918.40
2023-02-01T14:44:05.607Z,100923.20
2023-02-01T14:45:45.931Z,100919.60
2023-02-01T14:47:23.739Z,100921.40
2023-02-01T14:48:56.184Z,100927.20
2023-02-01T14:50:28.138Z,100917.00
2023-02-01T14:52:06.311Z,100922.40
2023-02-01T14:53:38.592Z,100935.60
2023-02-01T14:55:26.513Z,100931.20
2023-02-01T14:56:59.937Z,100931.00
2023-02-01T14:58:56.854Z,100938.00
2023-02-01T15:00:32.410Z,100931.80
2023-02-01T15:02:26.587Z,100934.00
2023-02-01T15:04:19.939Z,100947.20
2023-02-01T15:06:01.826Z,100940.40
2023-02-01T15:07:34.223Z,100950.40
2023-02-01T15:09:30.883Z,100946.80
2023-02-01T15:11:14.534Z,100936.00
2023-02-01T15:12:50.326Z,100932.00
2023-02-01T15:14:23.189Z,100936.00
2023-02-01T15:16:23.779Z,100934.40
2023-02-01T15:18:01.122Z,100934.80
2023-02-01T15:19:33.075Z,100940.80
2023-02-01T15:21:28.093Z,100955.00
2023-02-01T15:23:06.907Z,100938.80
2023-02-01T15:24:39.021Z,100959.00
2023-02-01T15:26:10.828Z,100941.40
2023-02-01T15:27:42.725Z,100947.00
2023-02-01T15:29:15.955Z,100943.40
2023-02-01T15:31:04.907Z,100928.80
2023-02-01T15:32:40.355Z,100931.60
2023-02-01T15:34:13.074Z,100934.80
2023-02-01T15:35:50.448Z,100944.00
2023-02-01T15:37:23.436Z,100940.20
2023-02-01T15:39:20.104Z,100938.40
2023-02-01T15:40:58.178Z,100941.40
2023-02-01T15:42:30.292Z,100944.40
2023-02-01T15:44:02.622Z,100936.60
2023-02-01T15:45:38.249Z,100936.20
2023-02-01T15:47:29.929Z,100931.80
2023-02-01T15:49:03.603Z,100926.60
2023-02-01T15:50:41.761Z,100932.20
2023-02-01T15:52:36.503Z,100929.20
2023-02-01T15:54:21.842Z,100926.80
2023-02-01T15:55:58.447Z,100928.40
2023-02-01T15:57:36.549Z,100933.80
2023-02-01T15:59:26.193Z,100921.60
2023-02-01T16:01:05.489Z,100929.00
2023-02-01T16:02:51.783Z,100925.40
2023-02-01T16:04:34.163Z,100924.20
2023-02-01T16:06:31.879Z,100928.80
2023-02-01T16:08:24.801Z,100921.00
2023-02-01T16:10:07.318Z,100926.20
2023-02-01T16:11:49.079Z,100924.00
2023-02-01T16:13:22.079Z,100932.00
2023-02-01T16:14:53.798Z,100929.80
2023-02-01T16:16:28.852Z,100932.00
2023-02-01T16:18:00.858Z,100935.60
2023-02-01T16:19:32.678Z,100933.40
2023-02-01T16:21:04.996Z,100937.00
2023-02-01T16:22:36.814Z,100928.20
2023-02-01T16:24:08.802Z,100933.00
2023-02-01T16:25:41.192Z,100930.00
2023-02-01T16:27:13.146Z,100932.60
2023-02-01T16:28:45.152Z,100935.00
2023-02-01T16:30:24.049Z,100932.60
2023-02-01T16:31:55.939Z,100935.00
2023-02-01T16:33:28.569Z,100931.20
2023-02-01T16:35:01.167Z,100938.40
2023-02-01T16:36:34.721Z,100947.00
2023-02-01T16:38:14.009Z,100944.20
2023-02-01T16:39:46.151Z,100935.80
2023-02-01T16:41:20.878Z,100943.40
2023-02-01T16:42:58.243Z,100937.60
2023-02-01T16:44:29.951Z,100945.00
2023-02-01T16:46:05.571Z,100947.60
2023-02-01T16:47:40.823Z,100935.00
2023-02-01T16:49:22.156Z,100937.80
2023-02-01T16:51:01.860Z,100915.00
2023-02-01T16:52:36.806Z,100904.80
2023-02-01T16:54:09.647Z,100911.00
2023-02-01T16:55:41.530Z,100901.60
2023-02-01T16:57:20.678Z,100915.60
2023-02-01T16:58:54.244Z,100917.20
2023-02-01T17:00:28.329Z,100988.00
2023-02-01T17:02:00.203Z,101034.40
2023-02-01T17:03:36.791Z,101031.00
2023-02-01T17:05:11.129Z,101030.40
2023-02-01T17:06:42.955Z,101040.40
2023-02-01T17:08:40.286Z,101037.80
2023-02-01T17:10:34.555Z,101031.20
2023-02-01T17:12:07.211Z,101029.40
2023-02-01T17:13:39.707Z,101038.60
2023-02-01T17:15:11.752Z,101038.60
2023-02-01T17:16:45.693Z,101040.20
2023-02-01T17:18:19.184Z,101032.80
2023-02-01T17:19:54.152Z,101023.80
2023-02-01T17:21:30.391Z,101029.20
2023-02-01T17:23:02.187Z,101033.20
2023-02-01T17:24:46.807Z,101036.80
2023-02-01T17:26:21.221Z,101039.60
2023-02-01T17:27:52.981Z,101037.80
2023-02-01T17:29:25.147Z,101042.00
2023-02-01T17:30:57.647Z,101030.80
2023-02-01T17:32:29.836Z,101034.60
2023-02-01T17:34:01.650Z,101028.00
2023-02-01T17:35:34.130Z,101034.60
2023-02-01T17:37:07.076Z,101030.40
2023-02-01T17:38:39.300Z,101038.40
2023-02-01T17:40:12.193Z,101026.40
2023-02-01T17:41:43.897Z,101029.60
2023-02-01T17:43:26.402Z,101035.20
2023-02-01T17:45:06.447Z,101028.20
2023-02-01T17:46:38.147Z,101025.80
2023-02-01T17:48:10.020Z,101019.80
2023-02-01T17:49:41.783Z,101032.80
2023-02-01T17:51:20.463Z,101027.00
2023-02-01T17:52:52.257Z,101035.00
2023-02-01T17:54:25.786Z,101033.80
2023-02-01T17:55:58.466Z,101034.20
2023-02-01T17:57:30.192Z,101026.60
2023-02-01T17:59:01.915Z,101011.20
2023-02-01T18:00:36.013Z,101001.60
2023-02-01T18:02:24.399Z,101002.20
2023-02-01T18:03:56.402Z,101002.40
2023-02-01T18:05:40.954Z,101002.80
2023-02-01T18:07:12.749Z,101005.40
2023-02-01T18:08:45.420Z,101021.60
2023-02-01T18:10:17.742Z,101024.40
2023-02-01T18:11:50.528Z,101025.00
2023-02-01T18:13:22.972Z,101029.60
2023-02-01T18:14:54.731Z,101050.60
2023-02-01T18:16:34.100Z,101050.00
2023-02-01T18:18:06.751Z,101045.60
2023-02-01T18:19:38.832Z,101062.20
2023-02-01T18:21:10.910Z,101065.40
2023-02-01T18:22:44.898Z,101064.00
2023-02-01T18:24:17.282Z,101069.80
2023-02-01T18:25:52.386Z,101079.60
2023-02-01T18:27:24.514Z,101079.80
2023-02-01T18:28:57.195Z,101092.00
2023-02-01T18:30:33.661Z,101095.00
2023-02-01T18:32:05.693Z,101121.00
2023-02-01T18:33:37.412Z,101098.20
2023-02-01T18:35:32.770Z,101090.80
2023-02-01T18:37:04.767Z,101083.40
2023-02-01T18:38:36.493Z,101091.60
2023-02-01T18:40:18.081Z,101083.60
2023-02-01T18:41:51.724Z,101078.80
2023-02-01T18:43:24.428Z,101057.20
2023-02-01T18:44:56.141Z,101055.80
2023-02-01T18:46:29.073Z,101060.40
2023-02-01T18:48:01.053Z,101058.40
2023-02-01T18:49:32.773Z,101054.40
2023-02-01T18:51:05.615Z,101049.20
2023-02-01T18:52:40.429Z,101050.00
2023-02-01T18:54:13.123Z,101052.40
2023-02-01T18:55:46.506Z,101050.00
2023-02-01T18:57:18.181Z,101057.40
2023-02-01T18:58:51.447Z,101053.20
2023-02-01T19:00:23.355Z,101055.60
2023-02-01T19:01:55.372Z,101059.20
2023-02-01T19:03:28.784Z,101059.80
2023-02-01T19:05:00.522Z,101058.20
2023-02-01T19:06:32.302Z,101057.80